This is the latest recevied weather packets stored in our database for station/object DG4DAA-13. If no packets are shown the sender has not sent any weather packets the latest 10 day(s).
| Time | Temp. | Humidity | Pressure | Rain* | Wind** | Luminosity | Snow |
|---|---|---|---|---|---|---|---|
| 1777693110 | 6.67° C | 81% | 1022.6 hPa | 0 mm | - | - | - |
| 1777691310 | 7.22° C | 81% | 1022.8 hPa | 0 mm | - | - | - |
| 1777689510 | 7.22° C | 80% | 1023 hPa | 0 mm | - | - | - |
| 1777687710 | 7.78° C | 79% | 1023.3 hPa | 0 mm | - | - | - |
| 1777685912 | 7.78° C | 78% | 1023.5 hPa | 0 mm | - | - | - |
| 1777685910 | 7.78° C | 78% | 1023.5 hPa | 0 mm | - | - | - |
| 1777684198 | 8.33° C | 79% | 1023.8 hPa | 0 mm | - | - | - |
| 1777684110 | 8.33° C | 79% | 1023.8 hPa | 0 mm | - | - | - |
| 1777682331 | 7.78° C | 78% | 1024.2 hPa | 0 mm | - | - | - |
| 1777682313 | 7.78° C | 78% | 1024.2 hPa | 0 mm | - | - | - |
| 1777682310 | 7.78° C | 78% | 1024.2 hPa | 0 mm | - | - | - |
| 1777678710 | 8.89° C | 75% | 1024.5 hPa | 0 mm | - | - | - |
| 1777676910 | 10° C | 73% | 1024.7 hPa | 0 mm | - | - | - |
| 1777675110 | 10.56° C | 71% | 1024.9 hPa | 0 mm | - | - | - |
| 1777673311 | 11.67° C | 70% | 1024.9 hPa | 0 mm | - | - | - |
| 1777671511 | 11.67° C | 70% | 1024.8 hPa | 0 mm | - | - | - |
| 1777669767 | 12.78° C | 68% | 1024.8 hPa | 0 mm | - | - | - |
| 1777669710 | 12.78° C | 68% | 1024.8 hPa | 0 mm | - | - | - |
| 1777667910 | 13.33° C | 63% | 1024.8 hPa | 0 mm | - | - | - |
| 1777666110 | 14.44° C | 62% | 1025 hPa | 0 mm | - | - | - |
| 1777664311 | 16.11° C | 58% | 1024.9 hPa | 0 mm | - | - | - |
| 1777662511 | 18.33° C | 52% | 1024.9 hPa | 0 mm | - | - | - |
| 1777660711 | 20.56° C | 42% | 1024.7 hPa | 0 mm | - | - | - |
| 1777658911 | 23.33° C | 38% | 1024.5 hPa | 0 mm | - | - | - |
| 1777657111 | 23.33° C | 37% | 1024.5 hPa | 0 mm | - | - | - |
* Rain latest hour (hover to see other rain measurements)
** Current wind speed in m/s (hover to see current wind gust speed)